Terminal Aerodrome Forecast
Issued by NWS

Home | Current Version | Previous Version | Text Only | Print | Product List | Glossary On
Versions: 1 2 3 4 5 6 7 8 9 10 11 12
699
FTUS42 TJSJ 042330
TAFKPK
TAF
TKPK 042330Z 0500/0524 06010KT P6SM SCT017
     FM051300 08013KT P6SM SCT020
     FM052330 07006KT P6SM VCSH FEW018
      AMD NOT SKED 0502/0511=

USA.gov is the U.S. government's official web portal to all federal, state and local government web resources and services.